Time;durP1;ratioP1;P1;durP2;ratioP2;P2;SDS_P1;SDS_P2;PMS_P1;PMS_P2;Temp;Humidity;BMP_temperature;BMP_pressure;BME280_temperature;BME280_humidity;BME280_pressure;Samples;Min_cycle;Max_cycle;Signal;HPM_P1;HPM_P2
2021/06/30 00:00:23;;;;;;;18.02;12.27;;;;;;;21.18;84.08;96892.69;5045209;28;20040;-64
2021/06/30 00:02:48;;;;;;;14.93;11.57;;;;;;;21.29;83.25;96909.31;5043329;28;20027;-64
2021/06/30 00:05:14;;;;;;;14.02;12.52;;;;;;;21.11;84.00;96921.03;5043269;28;20070;-64
2021/06/30 00:07:39;;;;;;;12.35;11.25;;;;;;;20.81;83.23;96877.13;5042844;28;20539;-64
2021/06/30 00:10:07;;;;;;;16.92;11.60;;;;;;;21.14;83.66;96911.69;5043413;28;20043;-64
2021/06/30 00:12:33;;;;;;;13.00;11.70;;;;;;;21.10;83.66;96911.00;5043275;28;20037;-65
2021/06/30 00:14:59;;;;;;;14.50;12.02;;;;;;;20.65;83.70;96834.91;5042592;28;20186;-65
2021/06/30 00:17:24;;;;;;;13.45;12.15;;;;;;;20.78;83.21;96865.97;5043040;28;20028;-64
2021/06/30 00:19:50;;;;;;;13.10;11.77;;;;;;;20.40;83.84;96822.69;5044602;28;20488;-65
2021/06/30 00:22:15;;;;;;;13.45;12.05;;;;;;;21.02;84.00;96923.69;5044280;28;20021;-64
2021/06/30 00:24:41;;;;;;;14.30;12.77;;;;;;;20.92;84.27;96921.91;5042754;28;20039;-66
2021/06/30 00:27:06;;;;;;;12.55;11.30;;;;;;;20.83;84.64;96913.28;5042407;28;20135;-64
2021/06/30 00:29:32;;;;;;;16.83;11.18;;;;;;;20.41;84.96;96858.03;5044030;28;20055;-64
2021/06/30 00:31:58;;;;;;;13.40;11.95;;;;;;;20.73;85.66;96914.34;5044004;28;20032;-65
2021/06/30 00:34:23;;;;;;;14.38;12.48;;;;;;;20.72;85.73;96918.41;5044097;28;20064;-64
2021/06/30 00:36:49;;;;;;;17.92;12.02;;;;;;;20.44;86.17;96885.28;5044433;28;20028;-65
2021/06/30 00:39:16;;;;;;;12.65;11.50;;;;;;;20.12;85.39;96834.63;5044208;28;20071;-67
2021/06/30 00:41:42;;;;;;;14.43;12.25;;;;;;;20.67;86.10;96918.94;5044057;28;20443;-64
2021/06/30 00:44:09;;;;;;;13.00;11.80;;;;;;;20.59;86.08;96920.31;5043797;28;20044;-65
2021/06/30 00:46:35;;;;;;;13.77;12.40;;;;;;;20.09;86.14;96853.13;5043851;28;20052;-64
2021/06/30 00:49:01;;;;;;;13.57;12.18;;;;;;;20.24;86.19;96870.50;5042266;28;20034;-65
2021/06/30 00:51:28;;;;;;;12.98;11.55;;;;;;;19.92;86.26;96826.22;5042436;28;20234;-64
2021/06/30 00:53:54;;;;;;;14.15;11.73;;;;;;;20.53;85.95;96922.09;5042503;28;20037;-65
2021/06/30 00:56:24;;;;;;;12.68;11.32;;;;;;;20.45;86.35;96931.94;5043783;28;20051;-64
2021/06/30 00:58:54;;;;;;;13.05;11.68;;;;;;;19.99;87.33;96881.53;5043805;28;20037;-64
2021/06/30 01:01:21;;;;;;;15.95;12.77;;;;;;;20.22;88.56;96926.41;5043531;28;20435;-64
2021/06/30 01:03:48;;;;;;;13.75;12.30;;;;;;;20.21;89.23;96916.41;5042115;28;20033;-64
2021/06/30 01:06:14;;;;;;;16.27;13.50;;;;;;;20.28;89.21;96921.88;5041783;28;20041;-63
2021/06/30 01:08:41;;;;;;;15.82;14.20;;;;;;;20.10;88.25;96901.75;5043688;28;20093;-65
2021/06/30 01:11:08;;;;;;;17.02;13.68;;;;;;;20.37;88.57;96925.69;5042319;28;20033;-65
2021/06/30 01:13:34;;;;;;;17.27;15.05;;;;;;;20.46;88.99;96934.31;5041891;28;20060;-64
2021/06/30 01:15:59;;;;;;;16.23;14.25;;;;;;;20.06;88.90;96872.94;5041921;28;20621;-65
2021/06/30 01:18:27;;;;;;;15.75;14.25;;;;;;;20.21;89.39;96885.47;5041674;28;20420;-65
2021/06/30 01:20:54;;;;;;;17.10;13.38;;;;;;;20.49;88.41;96921.38;5041647;28;20106;-65
2021/06/30 01:23:20;;;;;;;15.98;12.70;;;;;;;20.56;87.30;96915.56;5041687;28;20500;-65
2021/06/30 01:25:47;;;;;;;15.30;13.57;;;;;;;20.35;87.57;96904.81;5043270;28;20569;-65
2021/06/30 01:28:14;;;;;;;15.07;12.20;;;;;;;20.51;87.62;96918.91;5043270;28;20032;-64
2021/06/30 01:30:43;;;;;;;16.95;13.40;;;;;;;20.54;86.82;96927.28;5042160;28;20101;-64
2021/06/30 01:33:09;;;;;;;16.17;12.60;;;;;;;20.57;86.90;96917.94;5041914;28;20033;-65
2021/06/30 01:35:35;;;;;;;15.07;12.48;;;;;;;20.46;86.72;96899.72;5043546;28;20062;-65
2021/06/30 01:38:02;;;;;;;14.25;12.75;;;;;;;20.54;85.65;96921.66;5043350;28;20525;-64
2021/06/30 01:40:28;;;;;;;13.93;12.48;;;;;;;20.48;85.76;96919.78;5043537;28;20036;-64
2021/06/30 01:42:57;;;;;;;13.00;11.80;;;;;;;20.44;86.29;96933.13;5043390;28;20075;-64
2021/06/30 01:45:23;;;;;;;15.80;12.15;;;;;;;20.43;85.94;96935.19;5043222;28;20475;-63
2021/06/30 01:47:49;;;;;;;13.05;11.80;;;;;;;20.34;86.52;96925.75;5042173;28;20394;-64
2021/06/30 01:50:16;;;;;;;13.43;12.02;;;;;;;20.24;87.32;96926.78;5041959;28;20044;-63
2021/06/30 01:52:42;;;;;;;17.63;12.73;;;;;;;20.12;88.37;96921.81;5043093;28;20063;-64
2021/06/30 01:55:09;;;;;;;14.57;12.95;;;;;;;20.28;87.96;96922.66;5043045;28;20037;-64
2021/06/30 01:57:47;;;;;;;13.85;12.45;;;;;;;20.25;87.83;96939.63;5041457;28;20037;-64
2021/06/30 02:00:14;;;;;;;15.35;12.32;;;;;;;20.26;88.05;96935.59;5043423;28;20029;-65
2021/06/30 02:02:40;;;;;;;15.15;12.45;;;;;;;20.24;87.89;96938.03;5043322;28;20128;-64
2021/06/30 02:05:08;;;;;;;14.68;12.40;;;;;;;20.12;88.88;96941.50;5041148;28;20051;-63
2021/06/30 02:07:34;;;;;;;15.20;13.30;;;;;;;19.74;88.71;96867.22;5041352;28;20115;-64
2021/06/30 02:10:00;;;;;;;14.18;12.88;;;;;;;20.08;88.51;96918.25;5041744;28;20508;-64
2021/06/30 02:12:25;;;;;;;16.05;14.27;;;;;;;20.15;88.77;96930.19;5041089;28;20040;-64
2021/06/30 02:14:51;;;;;;;14.90;13.55;;;;;;;19.93;88.78;96922.63;5043047;28;20052;-64
2021/06/30 02:17:18;;;;;;;15.40;13.52;;;;;;;20.16;88.65;96936.59;5042604;28;20558;-64
2021/06/30 02:19:45;;;;;;;17.38;13.00;;;;;;;20.02;88.53;96925.63;5042950;28;20482;-64
2021/06/30 02:22:11;;;;;;;13.68;12.27;;;;;;;20.20;88.01;96942.97;5042739;28;20040;-64
2021/06/30 02:24:37;;;;;;;15.02;12.50;;;;;;;20.16;87.68;96947.84;5041294;28;20033;-65
2021/06/30 02:27:03;;;;;;;15.18;13.00;;;;;;;19.42;87.77;96843.41;5042834;28;20060;-65
2021/06/30 02:29:29;;;;;;;15.57;12.55;;;;;;;20.10;88.03;96949.56;5041543;28;20120;-64
2021/06/30 02:31:55;;;;;;;14.05;12.63;;;;;;;20.01;88.92;96944.53;5042828;28;20454;-64
2021/06/30 02:34:20;;;;;;;17.55;13.00;;;;;;;19.67;88.48;96895.47;5043422;28;20033;-64
2021/06/30 02:36:46;;;;;;;18.35;13.52;;;;;;;20.03;88.14;96963.81;5042859;28;20483;-65
2021/06/30 02:39:12;;;;;;;13.85;12.40;;;;;;;20.02;88.42;96959.38;5044739;28;20518;-64
2021/06/30 02:41:37;;;;;;;16.27;12.35;;;;;;;20.02;88.37;96965.00;5046519;28;20495;-64
2021/06/30 02:44:03;;;;;;;14.25;12.75;;;;;;;20.05;89.06;96961.31;5046162;28;20045;-63
2021/06/30 02:46:29;;;;;;;16.17;13.45;;;;;;;19.57;88.71;96899.31;5045061;28;20040;-64
2021/06/30 02:48:54;;;;;;;16.05;14.48;;;;;;;20.00;89.45;96959.00;5044901;28;20615;-63
2021/06/30 02:51:20;;;;;;;20.05;14.32;;;;;;;19.97;89.23;96959.88;5044600;28;20032;-64
2021/06/30 02:53:45;;;;;;;19.10;14.98;;;;;;;19.94;89.40;96963.56;5045789;28;20572;-64
2021/06/30 02:56:11;;;;;;;18.00;16.15;;;;;;;20.06;89.32;96960.88;5044363;28;20036;-64
2021/06/30 02:58:36;;;;;;;18.55;14.90;;;;;;;20.01;89.84;96963.44;5046344;28;20115;-65
2021/06/30 03:01:02;;;;;;;15.23;13.60;;;;;;;20.06;90.56;96960.13;5045830;28;20479;-63
2021/06/30 03:03:27;;;;;;;15.55;13.95;;;;;;;20.14;89.17;96961.59;5045750;28;20083;-63
2021/06/30 03:05:52;;;;;;;16.70;13.27;;;;;;;19.82;89.14;96917.25;5046431;28;20045;-64
2021/06/30 03:08:18;;;;;;;16.33;12.05;;;;;;;20.03;88.55;96946.94;5045779;28;20165;-65
2021/06/30 03:10:43;;;;;;;17.70;13.25;;;;;;;19.54;88.43;96884.88;5043985;28;20033;-64
2021/06/30 03:13:09;;;;;;;17.55;12.90;;;;;;;19.58;89.88;96900.88;5043685;28;20036;-64
2021/06/30 03:15:34;;;;;;;14.35;12.85;;;;;;;20.07;87.96;96967.31;5045439;28;20045;-64
2021/06/30 03:18:00;;;;;;;14.48;12.60;;;;;;;20.12;88.16;96964.75;5045594;28;20470;-64
2021/06/30 03:20:25;;;;;;;15.40;13.77;;;;;;;19.83;88.28;96913.19;5044031;28;20103;-63
2021/06/30 03:22:51;;;;;;;14.32;12.65;;;;;;;19.77;87.14;96908.50;5045692;28;20029;-64
2021/06/30 03:25:16;;;;;;;14.88;13.32;;;;;;;20.10;87.42;96963.63;5044155;28;20595;-64
2021/06/30 03:27:43;;;;;;;14.50;12.93;;;;;;;20.10;87.87;96964.44;5045132;28;20028;-65
2021/06/30 03:30:09;;;;;;;14.88;13.27;;;;;;;20.17;87.75;96963.53;5043741;28;20037;-65
2021/06/30 03:32:35;;;;;;;14.85;12.18;;;;;;;20.08;87.98;96952.00;5043637;28;20123;-66
2021/06/30 03:35:03;;;;;;;14.48;13.02;;;;;;;20.18;88.16;96956.66;5045389;28;20135;-64
2021/06/30 03:37:28;;;;;;;14.30;12.88;;;;;;;20.01;87.85;96924.06;5043457;28;20048;-63
2021/06/30 03:39:53;;;;;;;14.50;13.00;;;;;;;19.85;88.08;96904.31;5043640;28;20045;-64
2021/06/30 03:42:19;;;;;;;14.35;12.60;;;;;;;19.91;88.74;96909.00;5044016;28;20535;-64
2021/06/30 03:44:44;;;;;;;14.88;13.38;;;;;;;20.42;87.79;96958.13;5043688;28;20033;-63
2021/06/30 03:47:10;;;;;;;15.40;13.48;;;;;;;20.46;85.98;96950.38;5042806;28;20029;-63
2021/06/30 03:49:35;;;;;;;13.82;12.43;;;;;;;20.62;86.14;96964.47;5042831;28;20102;-63
2021/06/30 03:52:01;;;;;;;15.20;13.18;;;;;;;20.34;85.04;96906.06;5043304;28;20083;-63
2021/06/30 03:54:27;;;;;;;14.25;12.73;;;;;;;20.79;84.32;96940.72;5044775;28;20131;-63
2021/06/30 03:56:53;;;;;;;14.18;12.65;;;;;;;20.77;84.07;96931.97;5044752;28;20510;-64
2021/06/30 03:59:19;;;;;;;14.43;12.93;;;;;;;21.13;83.70;96960.84;5044845;28;20691;-64
2021/06/30 04:01:46;;;;;;;16.17;12.95;;;;;;;21.29;83.01;96969.28;5045653;28;20037;-63
2021/06/30 04:04:13;;;;;;;15.38;13.40;;;;;;;21.39;81.99;96982.28;5043588;28;20064;-64
2021/06/30 04:06:39;;;;;;;17.75;15.73;;;;;;;21.15;82.83;96918.13;5043187;28;20032;-63
2021/06/30 04:09:05;;;;;;;18.35;16.08;;;;;;;21.46;82.55;96968.00;5043134;28;20048;-63
2021/06/30 04:11:31;;;;;;;21.48;16.90;;;;;;;21.52;82.96;96971.88;5042857;28;20407;-63
2021/06/30 04:13:56;;;;;;;18.52;15.77;;;;;;;21.12;82.34;96890.84;5042393;28;20064;-63
2021/06/30 04:16:22;;;;;;;16.65;15.10;;;;;;;21.86;81.61;96963.69;5042822;28;20036;-64
2021/06/30 04:18:47;;;;;;;17.77;15.48;;;;;;;21.29;83.69;96969.28;5042945;28;20032;-64
2021/06/30 04:21:13;;;;;;;19.10;17.20;;;;;;;21.24;86.00;96967.00;5042924;28;20037;-64
2021/06/30 04:23:39;;;;;;;18.92;16.50;;;;;;;21.00;83.81;96867.00;5044319;28;20494;-64
2021/06/30 04:26:05;;;;;;;21.08;15.55;;;;;;;21.83;82.04;96942.00;5043962;28;20090;-64
2021/06/30 04:28:31;;;;;;;17.77;15.45;;;;;;;22.13;80.21;96961.28;5044458;28;20043;-64
2021/06/30 04:30:57;;;;;;;18.42;15.93;;;;;;;22.31;79.61;96964.38;5042983;28;20029;-64
2021/06/30 04:33:22;;;;;;;17.50;15.70;;;;;;;22.55;78.25;96969.72;5042751;28;20546;-64
2021/06/30 04:35:48;;;;;;;18.25;15.60;;;;;;;22.38;76.90;96916.16;5044524;28;20037;-65
2021/06/30 04:38:14;;;;;;;15.85;14.32;;;;;;;22.81;75.88;96972.09;5042290;28;20556;-65
2021/06/30 04:40:39;;;;;;;17.42;15.60;;;;;;;22.96;75.59;96944.16;5042296;28;20354;-64
2021/06/30 04:43:05;;;;;;;16.23;14.23;;;;;;;23.28;74.01;96966.53;5042135;28;20071;-65
2021/06/30 04:45:30;;;;;;;15.88;14.27;;;;;;;23.18;73.35;96945.03;5044154;28;20065;-64
2021/06/30 04:47:56;;;;;;;16.85;14.30;;;;;;;23.29;72.64;96939.84;5044024;28;20075;-65
2021/06/30 04:50:21;;;;;;;15.98;14.52;;;;;;;23.62;72.41;96975.03;5043974;28;20083;-63
2021/06/30 04:52:47;;;;;;;15.82;14.18;;;;;;;23.69;71.28;96963.47;5042165;28;20496;-65
2021/06/30 04:55:13;;;;;;;17.88;13.40;;;;;;;23.87;70.41;96952.28;5043653;28;20281;-64
2021/06/30 04:57:38;;;;;;;15.68;14.10;;;;;;;24.04;69.79;96965.03;5042049;28;20084;-65
2021/06/30 05:00:07;;;;;;;18.63;15.00;;;;;;;24.12;69.60;96966.34;5043782;28;20029;-64
2021/06/30 05:02:32;;;;;;;18.08;15.52;;;;;;;24.21;68.90;96960.75;5041173;28;20060;-65
2021/06/30 05:04:58;;;;;;;17.02;15.23;;;;;;;24.22;68.62;96948.16;5041816;28;20545;-65
2021/06/30 05:07:24;;;;;;;17.58;15.70;;;;;;;24.06;68.37;96894.59;5042055;28;20036;-64
2021/06/30 05:09:49;;;;;;;16.92;14.55;;;;;;;23.95;68.22;96880.03;5043804;28;20044;-65
2021/06/30 05:12:14;;;;;;;19.55;15.70;;;;;;;24.56;68.27;96964.25;5042161;28;20464;-65
2021/06/30 05:14:40;;;;;;;16.48;14.82;;;;;;;24.26;67.75;96889.38;5041585;28;20088;-65
2021/06/30 05:17:05;;;;;;;15.38;13.77;;;;;;;24.70;68.32;96964.50;5041771;28;20036;-64
2021/06/30 05:19:31;;;;;;;16.92;15.30;;;;;;;24.93;67.79;96963.16;5041158;28;20033;-64
2021/06/30 05:21:57;;;;;;;17.45;14.38;;;;;;;24.99;67.54;96956.41;5043125;28;20127;-64
2021/06/30 05:24:25;;;;;;;16.95;14.57;;;;;;;24.73;66.24;96906.91;5043420;28;20483;-64
2021/06/30 05:26:51;;;;;;;16.23;14.82;;;;;;;25.28;66.69;96964.53;5043184;28;20468;-64
2021/06/30 05:29:17;;;;;;;21.38;15.48;;;;;;;25.26;67.05;96967.84;5043605;28;20163;-65
2021/06/30 05:31:43;;;;;;;16.67;14.85;;;;;;;24.76;66.93;96893.84;5041803;28;20532;-64
2021/06/30 05:34:08;;;;;;;17.38;15.65;;;;;;;25.31;67.61;96955.88;5043305;28;20098;-64
2021/06/30 05:36:34;;;;;;;20.20;16.27;;;;;;;25.51;67.48;96960.34;5042825;28;20115;-67
2021/06/30 05:39:00;;;;;;;20.17;16.10;;;;;;;25.69;67.16;96955.47;5041377;28;20068;-65
2021/06/30 05:41:25;;;;;;;18.08;16.35;;;;;;;25.73;67.43;96966.69;5042754;28;20484;-65
2021/06/30 05:43:51;;;;;;;17.95;16.30;;;;;;;26.00;66.20;96955.34;5043242;28;20125;-64
2021/06/30 05:46:18;;;;;;;19.42;16.10;;;;;;;26.14;65.90;96951.88;5042068;28;20457;-64
2021/06/30 05:48:44;;;;;;;18.52;15.63;;;;;;;26.15;66.10;96944.91;5041884;28;20415;-64
2021/06/30 05:51:11;;;;;;;21.30;16.02;;;;;;;25.85;66.13;96906.13;5041062;28;20037;-64
2021/06/30 05:53:37;;;;;;;26.10;18.58;;;;;;;26.25;66.07;96946.47;5041305;28;20428;-64
2021/06/30 05:56:02;;;;;;;17.20;15.50;;;;;;;26.39;65.58;96957.19;5040833;28;20044;-64
2021/06/30 05:58:28;;;;;;;17.63;15.82;;;;;;;26.33;65.49;96916.47;5036229;28;20041;-65
2021/06/30 06:00:53;;;;;;;24.48;18.60;;;;;;;25.67;68.18;96889.13;5027494;28;20053;-65
2021/06/30 06:03:19;;;;;;;18.17;15.93;;;;;;;25.77;67.59;96825.38;5030086;28;20041;-61
2021/06/30 06:05:44;;;;;;;20.52;15.57;;;;;;;25.86;67.13;96848.09;5028821;28;20040;-63
2021/06/30 06:08:10;;;;;;;17.70;15.77;;;;;;;26.25;65.76;96869.78;5030753;28;20459;-65
2021/06/30 06:10:35;;;;;;;18.00;16.23;;;;;;;26.74;65.21;96887.31;5035376;28;20140;-64
2021/06/30 06:13:01;;;;;;;21.65;17.85;;;;;;;27.10;64.29;96921.25;5037450;28;20037;-65
2021/06/30 06:15:27;;;;;;;22.70;17.77;;;;;;;26.61;64.34;96827.03;5039673;28;20099;-63
2021/06/30 06:17:52;;;;;;;18.50;16.75;;;;;;;26.00;65.94;96805.69;5036012;28;20419;-69
2021/06/30 06:20:18;;;;;;;17.75;16.15;;;;;;;26.23;64.46;96789.94;5045465;28;20039;-66
2021/06/30 06:22:43;;;;;;;18.15;16.15;;;;;;;27.26;63.51;96918.00;5038208;28;20136;-68
2021/06/30 06:25:09;;;;;;;18.58;16.60;;;;;;;27.18;63.36;96854.19;5035622;28;20037;-61
2021/06/30 06:27:35;;;;;;;19.52;16.13;;;;;;;27.86;63.24;96949.84;5042748;28;20388;-61
2021/06/30 06:30:01;;;;;;;17.85;15.98;;;;;;;27.12;61.73;96839.06;5026767;28;20431;-66
2021/06/30 06:32:26;;;;;;;17.60;15.88;;;;;;;27.99;61.22;96941.84;5036624;28;20024;-64
2021/06/30 06:34:52;;;;;;;19.05;16.13;;;;;;;28.12;61.38;96948.03;5040835;28;20083;-65
2021/06/30 06:37:18;;;;;;;16.02;14.55;;;;;;;27.16;60.99;96839.66;5028944;28;20412;-61
2021/06/30 06:39:44;;;;;;;17.52;16.13;;;;;;;28.04;61.45;96938.28;5028633;28;20042;-62
2021/06/30 06:42:12;;;;;;;17.45;15.75;;;;;;;28.08;59.81;96933.22;5062039;28;20094;-66
2021/06/30 06:44:38;;;;;;;17.30;15.70;;;;;;;27.70;59.39;96907.56;5062817;28;20542;-66
2021/06/30 06:47:04;;;;;;;15.57;14.30;;;;;;;27.97;58.18;96938.69;5039736;28;20036;-65
2021/06/30 06:49:29;;;;;;;16.38;14.93;;;;;;;27.97;57.34;96913.06;5045931;28;20475;-63
2021/06/30 06:51:55;;;;;;;16.73;15.23;;;;;;;27.74;56.05;96811.34;5045931;28;20483;-62
2021/06/30 06:54:21;;;;;;;16.42;14.93;;;;;;;27.81;58.02;96932.63;5038182;28;20040;-61
2021/06/30 06:56:46;;;;;;;17.35;15.32;;;;;;;27.71;58.08;96846.50;5024374;28;20480;-67
2021/06/30 06:59:12;;;;;;;15.63;14.00;;;;;;;28.55;56.60;96925.78;5037419;28;20100;-65
2021/06/30 07:01:38;;;;;;;15.13;13.93;;;;;;;28.91;55.51;96919.66;5039030;28;20140;-63
2021/06/30 07:04:03;;;;;;;15.95;14.40;;;;;;;28.23;53.97;96772.88;5041370;28;20415;-65
2021/06/30 07:06:29;;;;;;;16.08;14.68;;;;;;;29.53;53.24;96914.31;5033904;28;20083;-66
2021/06/30 07:08:54;;;;;;;20.30;14.65;;;;;;;29.27;52.10;96919.19;5039794;28;20059;-68
2021/06/30 07:11:20;;;;;;;15.73;14.20;;;;;;;29.31;53.04;96911.19;5036272;28;20025;-68
2021/06/30 07:13:47;;;;;;;15.68;14.23;;;;;;;28.91;52.28;96845.47;5033261;28;20037;-62
2021/06/30 07:16:12;;;;;;;16.92;15.40;;;;;;;28.60;54.08;96888.03;5045740;28;20044;-62
2021/06/30 07:18:38;;;;;;;15.52;14.02;;;;;;;28.66;53.48;96863.25;5042193;28;20299;-61
2021/06/30 07:21:05;;;;;;;15.02;13.57;;;;;;;29.36;51.43;96913.31;5028762;28;20354;-60
2021/06/30 07:23:31;;;;;;;15.07;13.73;;;;;;;29.05;51.41;96868.25;5033142;28;20116;-61
2021/06/30 07:25:57;;;;;;;14.02;12.82;;;;;;;27.66;51.19;96702.00;5033840;28;20026;-65
2021/06/30 07:28:23;;;;;;;14.00;12.52;;;;;;;29.36;49.40;96916.19;5026325;28;20029;-61
2021/06/30 07:30:49;;;;;;;14.18;12.88;;;;;;;29.63;48.98;96912.13;5035612;28;20294;-64
2021/06/30 07:33:15;;;;;;;13.95;12.77;;;;;;;29.46;48.81;96857.66;5028110;28;20037;-62
2021/06/30 07:35:40;;;;;;;15.32;12.65;;;;;;;29.44;48.75;96849.59;5029150;28;20061;-62
2021/06/30 07:38:07;;;;;;;14.48;13.18;;;;;;;29.82;48.85;96908.50;5036710;28;20028;-62
2021/06/30 07:40:33;;;;;;;15.23;13.18;;;;;;;29.07;49.78;96813.59;5028396;28;20500;-59
2021/06/30 07:42:59;;;;;;;15.63;14.20;;;;;;;29.26;50.41;96849.13;5039044;28;20033;-60
2021/06/30 07:45:25;;;;;;;17.33;15.32;;;;;;;29.59;50.21;96889.50;5025876;28;20049;-59
2021/06/30 07:47:51;;;;;;;15.45;13.93;;;;;;;29.21;51.53;96864.84;5031866;28;20397;-61
2021/06/30 07:50:17;;;;;;;14.77;13.60;;;;;;;29.15;51.24;96897.47;5028833;28;20052;-60
2021/06/30 07:52:45;;;;;;;15.63;14.35;;;;;;;29.21;51.08;96818.44;5023503;28;20033;-60
2021/06/30 07:55:11;;;;;;;14.85;13.48;;;;;;;28.72;50.52;96770.78;5024780;28;20037;-59
2021/06/30 07:57:36;;;;;;;15.32;13.93;;;;;;;29.78;50.25;96876.53;5024390;28;20029;-61
2021/06/30 08:00:04;;;;;;;16.02;14.27;;;;;;;30.12;49.70;96880.50;5042960;28;20035;-65
2021/06/30 08:02:29;;;;;;;15.88;13.68;;;;;;;29.96;50.27;96856.19;5030191;28;20065;-64
2021/06/30 08:04:55;;;;;;;14.98;13.70;;;;;;;29.46;51.09;96829.91;5024710;28;20072;-59
2021/06/30 08:07:22;;;;;;;15.48;14.10;;;;;;;29.16;51.18;96811.38;5023233;28;20029;-62
2021/06/30 08:09:47;;;;;;;16.10;14.55;;;;;;;29.95;49.85;96871.78;5026930;28;20029;-61
2021/06/30 08:12:13;;;;;;;14.23;13.18;;;;;;;30.39;48.72;96883.69;5033338;28;20037;-61
2021/06/30 08:14:39;;;;;;;15.07;13.68;;;;;;;29.86;47.98;96760.50;5044478;28;20057;-61
2021/06/30 08:17:04;;;;;;;16.02;14.25;;;;;;;30.79;47.94;96894.19;5043623;28;20494;-61
2021/06/30 08:19:31;;;;;;;13.93;12.52;;;;;;;30.45;48.07;96858.78;5028577;28;20041;-62
2021/06/30 08:21:56;;;;;;;15.15;13.80;;;;;;;30.77;48.27;96886.13;5025262;28;20037;-61
2021/06/30 08:24:22;;;;;;;14.60;13.15;;;;;;;30.33;47.72;96777.06;5033514;28;20040;-60
2021/06/30 08:26:47;;;;;;;15.15;13.85;;;;;;;31.32;47.69;96882.06;5029161;28;20430;-63
2021/06/30 08:29:13;;;;;;;14.85;13.60;;;;;;;30.63;48.46;96794.69;5028238;28;20029;-60
2021/06/30 08:31:39;;;;;;;14.73;13.38;;;;;;;30.44;48.67;96794.31;5042261;28;20051;-61
2021/06/30 08:34:05;;;;;;;14.70;13.43;;;;;;;31.23;48.35;96876.53;5039895;28;20087;-63
2021/06/30 08:36:31;;;;;;;15.07;13.63;;;;;;;30.54;48.68;96769.94;5043571;28;21238;-63
2021/06/30 08:38:56;;;;;;;15.23;13.48;;;;;;;30.76;49.54;96890.25;5043968;28;20069;-64
2021/06/30 08:41:22;;;;;;;14.48;13.38;;;;;;;30.52;50.42;96881.22;5041916;28;20090;-61
2021/06/30 08:43:49;;;;;;;15.13;13.82;;;;;;;30.96;49.22;96875.06;5028709;28;20072;-66
2021/06/30 08:46:20;;;;;;;15.43;14.20;;;;;;;30.78;50.08;96841.91;5025791;28;20103;-62
2021/06/30 08:48:48;;;;;;;15.15;13.68;;;;;;;30.95;49.39;96880.00;5030197;28;20037;-65
2021/06/30 08:51:20;;;;;;;14.50;13.50;;;;;;;30.57;48.70;96760.34;5026781;28;20030;-60
2021/06/30 08:53:47;;;;;;;15.95;14.38;;;;;;;31.43;48.61;96851.41;5025475;28;20140;-64
2021/06/30 08:56:13;;;;;;;15.82;14.45;;;;;;;31.18;47.95;96765.63;5021987;28;20049;-64
2021/06/30 08:58:39;;;;;;;17.13;15.50;;;;;;;32.19;47.46;96873.03;5023171;28;20046;-60
2021/06/30 09:01:05;;;;;;;15.68;14.48;;;;;;;32.54;46.55;96858.25;5023569;28;20376;-65
2021/06/30 09:03:30;;;;;;;16.45;14.25;;;;;;;30.21;47.72;96558.19;5037727;28;20537;-67
2021/06/30 09:08:43;;;;;;;15.60;14.20;;;;;;;31.37;48.51;96858.41;5043382;28;20114;-65
2021/06/30 09:11:13;;;;;;;15.05;13.65;;;;;;;31.11;49.01;96783.31;5041703;28;20037;-66
2021/06/30 09:13:39;;;;;;;15.27;13.88;;;;;;;31.52;49.21;96830.38;5041031;28;20044;-66
2021/06/30 09:16:05;;;;;;;14.85;13.70;;;;;;;31.64;48.52;96849.16;5041810;28;20510;-66
2021/06/30 09:18:34;;;;;;;15.23;13.88;;;;;;;31.55;49.65;96866.56;5043177;28;20065;-65
2021/06/30 09:21:29;;;;;;;15.98;14.73;;;;;;;31.00;50.85;96854.78;5043251;28;20071;-66
2021/06/30 09:24:00;;;;;;;15.77;14.48;;;;;;;31.17;51.03;96847.09;5041998;28;20091;-64
2021/06/30 09:26:28;;;;;;;16.52;15.07;;;;;;;31.46;50.52;96789.47;5029798;28;20075;-67
2021/06/30 09:29:08;;;;;;;14.75;13.50;;;;;;;32.06;48.69;96789.63;5023454;28;20114;-64
2021/06/30 09:31:36;;;;;;;15.10;13.73;;;;;;;32.33;47.43;96762.25;5023408;28;20045;-67
2021/06/30 09:34:02;;;;;;;15.20;13.82;;;;;;;33.31;46.58;96840.94;5022147;28;20243;-63
2021/06/30 09:36:32;;;;;;;14.90;13.60;;;;;;;33.06;46.27;96784.63;5038729;28;20702;-66
2021/06/30 09:39:09;;;;;;;16.38;14.85;;;;;;;33.63;46.09;96824.13;5021855;28;20048;-67
2021/06/30 09:41:38;;;;;;;15.60;14.23;;;;;;;33.63;45.72;96822.03;5021823;28;20033;-67
2021/06/30 09:44:03;;;;;;;16.20;14.90;;;;;;;33.49;46.08;96816.63;5023283;28;20124;-64
2021/06/30 09:46:29;;;;;;;17.25;15.75;;;;;;;33.64;47.18;96809.22;5021138;28;20482;-68
2021/06/30 09:49:00;;;;;;;15.77;14.15;;;;;;;33.96;46.37;96808.78;5026123;28;20045;-64
2021/06/30 09:51:26;;;;;;;16.33;15.10;;;;;;;34.11;44.79;96791.97;5027526;28;20112;-66
2021/06/30 09:53:53;;;;;;;15.13;13.82;;;;;;;34.01;45.39;96767.72;5027000;28;20428;-64
2021/06/30 09:59:26;;;;;;;17.17;15.52;;;;;;;32.69;45.93;96583.28;5022333;28;20554;-68
2021/06/30 10:01:52;;;;;;;17.13;15.48;;;;;;;34.36;45.72;96790.75;5025711;28;20030;-64
2021/06/30 10:04:38;;;;;;;16.95;15.45;;;;;;;34.15;44.47;96757.94;5027021;28;20099;-63
2021/06/30 10:07:05;;;;;;;15.75;14.30;;;;;;;33.93;47.04;96786.88;5025050;28;20419;-67
2021/06/30 10:09:31;;;;;;;15.05;13.82;;;;;;;34.46;45.05;96784.13;5025389;28;20128;-64
2021/06/30 10:12:09;;;;;;;17.00;15.23;;;;;;;34.56;44.75;96781.69;5027019;28;20132;-63
2021/06/30 10:14:35;;;;;;;16.88;15.25;;;;;;;34.40;45.17;96779.75;5026852;28;20058;-64
2021/06/30 10:17:01;;;;;;;16.40;14.95;;;;;;;33.99;45.60;96692.75;5025042;28;20116;-66
2021/06/30 10:19:27;;;;;;;16.17;14.85;;;;;;;34.67;44.77;96781.59;5026959;28;20152;-66
2021/06/30 10:21:53;;;;;;;15.70;14.50;;;;;;;34.84;44.12;96779.34;5027605;28;20036;-65
2021/06/30 10:24:21;;;;;;;16.48;15.13;;;;;;;34.00;45.90;96780.56;5044942;28;20041;-68
2021/06/30 10:26:47;;;;;;;17.70;16.08;;;;;;;33.92;46.46;96776.69;5046271;28;20029;-66
2021/06/30 10:29:14;;;;;;;14.65;13.65;;;;;;;33.30;45.88;96712.22;5044938;28;20570;-64
2021/06/30 10:31:42;;;;;;;15.85;14.65;;;;;;;34.20;45.83;96771.50;5046274;28;20037;-64
2021/06/30 10:34:10;;;;;;;16.30;14.82;;;;;;;33.95;46.47;96772.75;5046724;28;20028;-67
2021/06/30 10:36:51;;;;;;;15.85;14.65;;;;;;;33.98;45.98;96771.69;5044837;28;20060;-66
2021/06/30 10:39:38;;;;;;;16.60;15.07;;;;;;;32.34;47.06;96563.09;5040625;28;20060;-65
2021/06/30 10:42:36;;;;;;;16.90;15.23;;;;;;;33.33;47.79;96791.56;5023894;28;20052;-66
2021/06/30 10:45:15;;;;;;;17.40;15.65;;;;;;;33.78;47.16;96730.47;5030631;28;20041;-65
2021/06/30 10:47:47;;;;;;;17.27;15.98;;;;;;;34.14;46.72;96698.88;5028894;28;20052;-63
2021/06/30 10:50:32;;;;;;;16.42;14.73;;;;;;;34.28;46.76;96741.66;5039517;28;20117;-70
2021/06/30 10:53:01;;;;;;;17.83;16.17;;;;;;;34.44;47.49;96740.75;5036983;28;20079;-64
2021/06/30 10:58:13;;;;;;;20.45;18.20;;;;;;;35.27;45.31;96736.97;5031938;28;20033;-64
2021/06/30 11:00:57;;;;;;;17.67;16.30;;;;;;;34.26;46.24;96734.84;5029763;28;20046;-62
2021/06/30 11:03:45;;;;;;;16.77;15.38;;;;;;;34.68;46.07;96725.59;5027996;28;20520;-60
2021/06/30 11:06:13;;;;;;;18.15;15.80;;;;;;;35.21;45.18;96727.63;5031354;28;20029;-65
2021/06/30 11:08:49;;;;;;;17.17;15.73;;;;;;;35.19;46.06;96723.72;5026561;28;20546;-65
2021/06/30 11:11:17;;;;;;;17.58;15.95;;;;;;;35.34;46.23;96727.72;5031593;28;20042;-61
2021/06/30 11:14:05;;;;;;;17.25;15.63;;;;;;;35.36;45.68;96727.16;5039792;28;20101;-67
2021/06/30 11:16:36;;;;;;;19.63;17.55;;;;;;;35.82;44.45;96721.81;5043936;28;20045;-66
2021/06/30 11:19:05;;;;;;;17.13;15.77;;;;;;;35.25;44.47;96675.47;5043889;28;20033;-63
2021/06/30 11:21:58;;;;;;;17.48;16.05;;;;;;;34.99;45.63;96722.13;5038840;28;20123;-69
2021/06/30 11:24:33;;;;;;;18.17;16.40;;;;;;;34.93;45.60;96727.19;5029104;28;20115;-66